sensor_id;sensor_type;location;lat;lon;timestamp;P1;durP1;ratioP1;P2;durP2;ratioP2
16880;SDS011;8557;52.068;5.198;2022-12-18T00:01:52;72.07;;;28.70;;
16880;SDS011;8557;52.068;5.198;2022-12-18T00:04:20;54.60;;;26.90;;
16880;SDS011;8557;52.068;5.198;2022-12-18T00:06:48;59.57;;;27.20;;
16880;SDS011;8557;52.068;5.198;2022-12-18T00:09:15;63.23;;;29.10;;
16880;SDS011;8557;52.068;5.198;2022-12-18T00:11:42;57.80;;;27.73;;
16880;SDS011;8557;52.068;5.198;2022-12-18T00:14:10;61.97;;;28.40;;
16880;SDS011;8557;52.068;5.198;2022-12-18T00:16:38;59.37;;;27.43;;
16880;SDS011;8557;52.068;5.198;2022-12-18T00:19:05;59.23;;;29.67;;
16880;SDS011;8557;52.068;5.198;2022-12-18T00:21:32;58.20;;;28.10;;
16880;SDS011;8557;52.068;5.198;2022-12-18T00:24:00;57.60;;;27.43;;
16880;SDS011;8557;52.068;5.198;2022-12-18T00:26:27;53.57;;;26.80;;
16880;SDS011;8557;52.068;5.198;2022-12-18T00:28:57;59.83;;;28.10;;
16880;SDS011;8557;52.068;5.198;2022-12-18T00:31:26;59.07;;;27.53;;
16880;SDS011;8557;52.068;5.198;2022-12-18T00:33:53;60.10;;;28.10;;
16880;SDS011;8557;52.068;5.198;2022-12-18T00:36:21;58.10;;;27.93;;
16880;SDS011;8557;52.068;5.198;2022-12-18T00:38:50;57.00;;;27.77;;
16880;SDS011;8557;52.068;5.198;2022-12-18T00:41:17;59.23;;;27.90;;
16880;SDS011;8557;52.068;5.198;2022-12-18T00:43:58;60.63;;;28.17;;
16880;SDS011;8557;52.068;5.198;2022-12-18T00:46:26;55.20;;;27.00;;
16880;SDS011;8557;52.068;5.198;2022-12-18T00:48:53;56.60;;;26.50;;
16880;SDS011;8557;52.068;5.198;2022-12-18T00:51:20;63.03;;;28.80;;
16880;SDS011;8557;52.068;5.198;2022-12-18T00:53:46;52.63;;;26.53;;
16880;SDS011;8557;52.068;5.198;2022-12-18T00:56:13;58.23;;;28.70;;
16880;SDS011;8557;52.068;5.198;2022-12-18T00:58:40;59.10;;;29.43;;
16880;SDS011;8557;52.068;5.198;2022-12-18T01:01:06;57.83;;;27.87;;
16880;SDS011;8557;52.068;5.198;2022-12-18T01:03:35;63.93;;;29.93;;
16880;SDS011;8557;52.068;5.198;2022-12-18T01:06:05;55.93;;;28.07;;
16880;SDS011;8557;52.068;5.198;2022-12-18T01:08:32;61.53;;;28.27;;
16880;SDS011;8557;52.068;5.198;2022-12-18T01:10:59;59.27;;;28.50;;
16880;SDS011;8557;52.068;5.198;2022-12-18T01:13:26;56.47;;;25.80;;
16880;SDS011;8557;52.068;5.198;2022-12-18T01:15:53;54.77;;;26.90;;
16880;SDS011;8557;52.068;5.198;2022-12-18T01:18:19;60.47;;;28.77;;
16880;SDS011;8557;52.068;5.198;2022-12-18T01:20:47;53.53;;;25.97;;
16880;SDS011;8557;52.068;5.198;2022-12-18T01:23:14;57.97;;;27.77;;
16880;SDS011;8557;52.068;5.198;2022-12-18T01:25:41;62.07;;;27.67;;
16880;SDS011;8557;52.068;5.198;2022-12-18T01:28:08;63.57;;;28.40;;
16880;SDS011;8557;52.068;5.198;2022-12-18T01:30:34;58.83;;;27.33;;
16880;SDS011;8557;52.068;5.198;2022-12-18T01:33:01;58.53;;;28.07;;
16880;SDS011;8557;52.068;5.198;2022-12-18T01:35:30;58.50;;;27.60;;
16880;SDS011;8557;52.068;5.198;2022-12-18T01:37:58;62.13;;;28.33;;
16880;SDS011;8557;52.068;5.198;2022-12-18T01:40:25;63.03;;;28.93;;
16880;SDS011;8557;52.068;5.198;2022-12-18T01:42:51;61.00;;;28.57;;
16880;SDS011;8557;52.068;5.198;2022-12-18T01:45:23;59.23;;;27.70;;
16880;SDS011;8557;52.068;5.198;2022-12-18T01:47:53;57.53;;;26.00;;
16880;SDS011;8557;52.068;5.198;2022-12-18T01:50:22;52.93;;;26.27;;
16880;SDS011;8557;52.068;5.198;2022-12-18T01:52:53;52.73;;;25.57;;
16880;SDS011;8557;52.068;5.198;2022-12-18T01:55:23;57.33;;;27.93;;
16880;SDS011;8557;52.068;5.198;2022-12-18T01:57:54;55.87;;;27.27;;
16880;SDS011;8557;52.068;5.198;2022-12-18T02:00:24;55.27;;;26.70;;
16880;SDS011;8557;52.068;5.198;2022-12-18T02:02:52;57.03;;;27.93;;
16880;SDS011;8557;52.068;5.198;2022-12-18T02:05:21;52.73;;;27.03;;
16880;SDS011;8557;52.068;5.198;2022-12-18T02:07:55;51.30;;;26.40;;
16880;SDS011;8557;52.068;5.198;2022-12-18T02:10:35;57.43;;;27.13;;
16880;SDS011;8557;52.068;5.198;2022-12-18T02:15:39;55.63;;;25.17;;
16880;SDS011;8557;52.068;5.198;2022-12-18T02:18:11;54.43;;;26.03;;
16880;SDS011;8557;52.068;5.198;2022-12-18T02:20:41;52.43;;;26.40;;
16880;SDS011;8557;52.068;5.198;2022-12-18T02:23:13;52.37;;;25.97;;
16880;SDS011;8557;52.068;5.198;2022-12-18T02:25:54;47.47;;;24.90;;
16880;SDS011;8557;52.068;5.198;2022-12-18T02:28:33;46.10;;;25.00;;
16880;SDS011;8557;52.068;5.198;2022-12-18T02:31:04;46.10;;;24.07;;
16880;SDS011;8557;52.068;5.198;2022-12-18T02:33:35;51.37;;;25.97;;
16880;SDS011;8557;52.068;5.198;2022-12-18T02:36:04;45.33;;;24.97;;
16880;SDS011;8557;52.068;5.198;2022-12-18T02:38:33;51.93;;;25.70;;
16880;SDS011;8557;52.068;5.198;2022-12-18T02:41:02;49.27;;;24.53;;
16880;SDS011;8557;52.068;5.198;2022-12-18T02:43:31;50.30;;;25.53;;
16880;SDS011;8557;52.068;5.198;2022-12-18T02:45:58;46.83;;;25.77;;
16880;SDS011;8557;52.068;5.198;2022-12-18T02:48:27;51.57;;;26.47;;
16880;SDS011;8557;52.068;5.198;2022-12-18T02:50:59;48.00;;;24.90;;
16880;SDS011;8557;52.068;5.198;2022-12-18T02:53:31;46.27;;;24.50;;
16880;SDS011;8557;52.068;5.198;2022-12-18T02:56:05;49.93;;;24.90;;
16880;SDS011;8557;52.068;5.198;2022-12-18T02:58:37;51.03;;;25.90;;
16880;SDS011;8557;52.068;5.198;2022-12-18T03:01:13;50.57;;;26.27;;
16880;SDS011;8557;52.068;5.198;2022-12-18T03:03:46;54.23;;;25.30;;
16880;SDS011;8557;52.068;5.198;2022-12-18T03:06:19;53.27;;;24.93;;
16880;SDS011;8557;52.068;5.198;2022-12-18T03:08:51;48.33;;;24.70;;
16880;SDS011;8557;52.068;5.198;2022-12-18T03:11:24;49.67;;;25.63;;
16880;SDS011;8557;52.068;5.198;2022-12-18T03:14:08;50.17;;;25.43;;
16880;SDS011;8557;52.068;5.198;2022-12-18T03:16:37;46.13;;;24.47;;
16880;SDS011;8557;52.068;5.198;2022-12-18T03:19:07;48.80;;;24.47;;
16880;SDS011;8557;52.068;5.198;2022-12-18T03:21:38;45.90;;;24.97;;
16880;SDS011;8557;52.068;5.198;2022-12-18T03:24:08;51.53;;;25.10;;
16880;SDS011;8557;52.068;5.198;2022-12-18T03:26:39;54.10;;;26.20;;
16880;SDS011;8557;52.068;5.198;2022-12-18T03:29:12;53.47;;;25.47;;
16880;SDS011;8557;52.068;5.198;2022-12-18T03:31:45;51.80;;;25.93;;
16880;SDS011;8557;52.068;5.198;2022-12-18T03:34:17;48.70;;;24.50;;
16880;SDS011;8557;52.068;5.198;2022-12-18T03:36:49;47.33;;;24.87;;
16880;SDS011;8557;52.068;5.198;2022-12-18T03:39:15;48.97;;;24.93;;
16880;SDS011;8557;52.068;5.198;2022-12-18T03:41:44;48.37;;;23.83;;
16880;SDS011;8557;52.068;5.198;2022-12-18T03:44:18;46.37;;;26.13;;
16880;SDS011;8557;52.068;5.198;2022-12-18T03:46:52;50.53;;;26.13;;
16880;SDS011;8557;52.068;5.198;2022-12-18T03:49:25;50.20;;;24.87;;
16880;SDS011;8557;52.068;5.198;2022-12-18T03:51:59;47.97;;;24.53;;
16880;SDS011;8557;52.068;5.198;2022-12-18T03:54:30;47.63;;;24.77;;
16880;SDS011;8557;52.068;5.198;2022-12-18T03:57:01;45.97;;;25.17;;
16880;SDS011;8557;52.068;5.198;2022-12-18T03:59:32;46.23;;;24.30;;
16880;SDS011;8557;52.068;5.198;2022-12-18T04:02:01;45.80;;;24.83;;
16880;SDS011;8557;52.068;5.198;2022-12-18T04:04:30;46.80;;;24.17;;
16880;SDS011;8557;52.068;5.198;2022-12-18T04:06:58;45.83;;;24.03;;
16880;SDS011;8557;52.068;5.198;2022-12-18T04:09:25;42.50;;;23.93;;
16880;SDS011;8557;52.068;5.198;2022-12-18T04:11:53;41.23;;;23.50;;
16880;SDS011;8557;52.068;5.198;2022-12-18T04:14:21;45.93;;;23.87;;
16880;SDS011;8557;52.068;5.198;2022-12-18T04:16:48;43.23;;;22.80;;
16880;SDS011;8557;52.068;5.198;2022-12-18T04:19:15;41.93;;;23.27;;
16880;SDS011;8557;52.068;5.198;2022-12-18T04:21:41;42.20;;;23.03;;
16880;SDS011;8557;52.068;5.198;2022-12-18T04:24:08;41.13;;;22.63;;
16880;SDS011;8557;52.068;5.198;2022-12-18T04:26:35;43.00;;;21.60;;
16880;SDS011;8557;52.068;5.198;2022-12-18T04:29:03;37.67;;;21.17;;
16880;SDS011;8557;52.068;5.198;2022-12-18T04:31:31;37.37;;;21.23;;
16880;SDS011;8557;52.068;5.198;2022-12-18T04:33:58;38.90;;;21.43;;
16880;SDS011;8557;52.068;5.198;2022-12-18T04:36:25;35.57;;;19.37;;
16880;SDS011;8557;52.068;5.198;2022-12-18T04:38:52;41.57;;;20.77;;
16880;SDS011;8557;52.068;5.198;2022-12-18T04:41:19;32.90;;;19.40;;
16880;SDS011;8557;52.068;5.198;2022-12-18T04:43:46;36.93;;;20.03;;
16880;SDS011;8557;52.068;5.198;2022-12-18T04:46:12;37.20;;;20.33;;
16880;SDS011;8557;52.068;5.198;2022-12-18T04:48:41;32.30;;;19.27;;
16880;SDS011;8557;52.068;5.198;2022-12-18T04:51:07;35.37;;;19.67;;
16880;SDS011;8557;52.068;5.198;2022-12-18T04:53:34;31.93;;;19.63;;
16880;SDS011;8557;52.068;5.198;2022-12-18T04:56:02;33.63;;;18.93;;
16880;SDS011;8557;52.068;5.198;2022-12-18T04:58:30;36.53;;;19.60;;
16880;SDS011;8557;52.068;5.198;2022-12-18T05:00:56;33.37;;;19.20;;
16880;SDS011;8557;52.068;5.198;2022-12-18T05:03:23;31.97;;;18.23;;
16880;SDS011;8557;52.068;5.198;2022-12-18T05:05:51;33.53;;;17.70;;
16880;SDS011;8557;52.068;5.198;2022-12-18T05:08:19;29.67;;;17.57;;
16880;SDS011;8557;52.068;5.198;2022-12-18T05:10:45;30.30;;;16.60;;
16880;SDS011;8557;52.068;5.198;2022-12-18T05:13:12;28.83;;;17.63;;
16880;SDS011;8557;52.068;5.198;2022-12-18T05:15:39;26.13;;;17.10;;
16880;SDS011;8557;52.068;5.198;2022-12-18T05:18:07;28.97;;;16.57;;
16880;SDS011;8557;52.068;5.198;2022-12-18T05:20:34;27.70;;;15.93;;
16880;SDS011;8557;52.068;5.198;2022-12-18T05:23:02;24.30;;;14.93;;
16880;SDS011;8557;52.068;5.198;2022-12-18T05:25:29;24.27;;;15.53;;
16880;SDS011;8557;52.068;5.198;2022-12-18T05:27:56;26.83;;;16.20;;
16880;SDS011;8557;52.068;5.198;2022-12-18T05:30:23;25.87;;;15.30;;
16880;SDS011;8557;52.068;5.198;2022-12-18T05:32:50;24.50;;;15.47;;
16880;SDS011;8557;52.068;5.198;2022-12-18T05:35:16;24.33;;;15.13;;
16880;SDS011;8557;52.068;5.198;2022-12-18T05:37:43;24.53;;;15.47;;
16880;SDS011;8557;52.068;5.198;2022-12-18T05:40:12;26.80;;;15.67;;
16880;SDS011;8557;52.068;5.198;2022-12-18T05:42:39;23.63;;;14.30;;
16880;SDS011;8557;52.068;5.198;2022-12-18T05:45:06;25.80;;;15.20;;
16880;SDS011;8557;52.068;5.198;2022-12-18T05:47:33;24.63;;;15.13;;
16880;SDS011;8557;52.068;5.198;2022-12-18T05:50:00;25.30;;;15.77;;
16880;SDS011;8557;52.068;5.198;2022-12-18T05:52:27;23.93;;;15.63;;
16880;SDS011;8557;52.068;5.198;2022-12-18T05:54:54;24.70;;;15.10;;
16880;SDS011;8557;52.068;5.198;2022-12-18T05:57:22;23.73;;;14.87;;
16880;SDS011;8557;52.068;5.198;2022-12-18T05:59:49;28.03;;;16.20;;
16880;SDS011;8557;52.068;5.198;2022-12-18T06:02:16;23.70;;;16.13;;
16880;SDS011;8557;52.068;5.198;2022-12-18T06:04:42;23.43;;;14.57;;
16880;SDS011;8557;52.068;5.198;2022-12-18T06:07:09;24.83;;;15.20;;
16880;SDS011;8557;52.068;5.198;2022-12-18T06:09:36;24.40;;;15.20;;
16880;SDS011;8557;52.068;5.198;2022-12-18T06:12:03;22.70;;;14.90;;
16880;SDS011;8557;52.068;5.198;2022-12-18T06:14:31;21.20;;;13.87;;
16880;SDS011;8557;52.068;5.198;2022-12-18T06:16:58;21.30;;;14.03;;
16880;SDS011;8557;52.068;5.198;2022-12-18T06:19:25;24.00;;;13.77;;
16880;SDS011;8557;52.068;5.198;2022-12-18T06:21:52;24.40;;;15.17;;
16880;SDS011;8557;52.068;5.198;2022-12-18T06:24:19;22.67;;;14.00;;
16880;SDS011;8557;52.068;5.198;2022-12-18T06:26:46;22.77;;;14.17;;
16880;SDS011;8557;52.068;5.198;2022-12-18T06:29:13;23.57;;;13.97;;
16880;SDS011;8557;52.068;5.198;2022-12-18T06:31:41;20.80;;;13.53;;
16880;SDS011;8557;52.068;5.198;2022-12-18T06:34:08;25.23;;;14.00;;
16880;SDS011;8557;52.068;5.198;2022-12-18T06:36:34;21.40;;;13.83;;
16880;SDS011;8557;52.068;5.198;2022-12-18T06:39:01;19.87;;;13.27;;
16880;SDS011;8557;52.068;5.198;2022-12-18T06:41:28;24.03;;;14.57;;
16880;SDS011;8557;52.068;5.198;2022-12-18T06:43:55;20.80;;;14.03;;
16880;SDS011;8557;52.068;5.198;2022-12-18T06:46:23;21.30;;;13.77;;
16880;SDS011;8557;52.068;5.198;2022-12-18T06:48:51;20.60;;;13.53;;
16880;SDS011;8557;52.068;5.198;2022-12-18T06:51:19;24.17;;;15.03;;
16880;SDS011;8557;52.068;5.198;2022-12-18T06:53:46;24.20;;;14.70;;
16880;SDS011;8557;52.068;5.198;2022-12-18T06:56:13;24.83;;;14.23;;
16880;SDS011;8557;52.068;5.198;2022-12-18T06:58:40;21.73;;;13.60;;
16880;SDS011;8557;52.068;5.198;2022-12-18T07:01:08;22.07;;;14.23;;
16880;SDS011;8557;52.068;5.198;2022-12-18T07:03:36;24.70;;;14.03;;
16880;SDS011;8557;52.068;5.198;2022-12-18T07:06:06;22.03;;;13.53;;
16880;SDS011;8557;52.068;5.198;2022-12-18T07:08:38;20.40;;;13.77;;
16880;SDS011;8557;52.068;5.198;2022-12-18T07:11:05;22.20;;;13.20;;
16880;SDS011;8557;52.068;5.198;2022-12-18T07:13:32;23.67;;;13.83;;
16880;SDS011;8557;52.068;5.198;2022-12-18T07:16:08;21.83;;;14.63;;
16880;SDS011;8557;52.068;5.198;2022-12-18T07:18:37;21.53;;;13.67;;
16880;SDS011;8557;52.068;5.198;2022-12-18T07:21:04;20.43;;;13.93;;
16880;SDS011;8557;52.068;5.198;2022-12-18T07:23:33;23.63;;;14.53;;
16880;SDS011;8557;52.068;5.198;2022-12-18T07:26:02;23.43;;;14.73;;
16880;SDS011;8557;52.068;5.198;2022-12-18T07:28:36;21.13;;;13.67;;
16880;SDS011;8557;52.068;5.198;2022-12-18T07:31:08;22.03;;;13.40;;
16880;SDS011;8557;52.068;5.198;2022-12-18T07:33:37;20.97;;;13.37;;
16880;SDS011;8557;52.068;5.198;2022-12-18T07:36:05;20.67;;;14.47;;
16880;SDS011;8557;52.068;5.198;2022-12-18T07:38:35;20.33;;;13.60;;
16880;SDS011;8557;52.068;5.198;2022-12-18T07:41:02;19.10;;;13.53;;
16880;SDS011;8557;52.068;5.198;2022-12-18T07:43:31;21.63;;;13.80;;
16880;SDS011;8557;52.068;5.198;2022-12-18T07:45:57;19.07;;;13.60;;
16880;SDS011;8557;52.068;5.198;2022-12-18T07:48:24;21.17;;;14.20;;
16880;SDS011;8557;52.068;5.198;2022-12-18T07:50:51;20.40;;;14.30;;
16880;SDS011;8557;52.068;5.198;2022-12-18T07:53:19;22.90;;;14.93;;
16880;SDS011;8557;52.068;5.198;2022-12-18T07:55:46;20.83;;;13.60;;
16880;SDS011;8557;52.068;5.198;2022-12-18T07:58:13;20.83;;;14.37;;
16880;SDS011;8557;52.068;5.198;2022-12-18T08:00:40;19.97;;;13.40;;
16880;SDS011;8557;52.068;5.198;2022-12-18T08:03:07;20.47;;;13.10;;
16880;SDS011;8557;52.068;5.198;2022-12-18T08:05:33;20.23;;;13.70;;
16880;SDS011;8557;52.068;5.198;2022-12-18T08:08:00;24.33;;;15.07;;
16880;SDS011;8557;52.068;5.198;2022-12-18T08:10:28;20.07;;;13.37;;
16880;SDS011;8557;52.068;5.198;2022-12-18T08:12:55;19.67;;;13.50;;
16880;SDS011;8557;52.068;5.198;2022-12-18T08:15:22;18.57;;;12.90;;
16880;SDS011;8557;52.068;5.198;2022-12-18T08:17:49;21.47;;;13.50;;
16880;SDS011;8557;52.068;5.198;2022-12-18T08:20:16;22.70;;;14.00;;
16880;SDS011;8557;52.068;5.198;2022-12-18T08:22:43;20.63;;;13.33;;
16880;SDS011;8557;52.068;5.198;2022-12-18T08:25:10;18.67;;;12.47;;
16880;SDS011;8557;52.068;5.198;2022-12-18T08:27:38;19.90;;;13.47;;
16880;SDS011;8557;52.068;5.198;2022-12-18T08:30:06;20.27;;;13.43;;
16880;SDS011;8557;52.068;5.198;2022-12-18T08:32:33;20.93;;;13.13;;
16880;SDS011;8557;52.068;5.198;2022-12-18T08:35:00;21.27;;;13.40;;
16880;SDS011;8557;52.068;5.198;2022-12-18T08:37:27;19.97;;;13.53;;
16880;SDS011;8557;52.068;5.198;2022-12-18T08:39:54;18.60;;;12.90;;
16880;SDS011;8557;52.068;5.198;2022-12-18T08:42:20;19.37;;;12.70;;
16880;SDS011;8557;52.068;5.198;2022-12-18T08:45:20;21.63;;;13.50;;
16880;SDS011;8557;52.068;5.198;2022-12-18T08:47:47;20.70;;;14.20;;
16880;SDS011;8557;52.068;5.198;2022-12-18T08:50:14;19.27;;;12.83;;
16880;SDS011;8557;52.068;5.198;2022-12-18T08:52:41;21.40;;;14.27;;
16880;SDS011;8557;52.068;5.198;2022-12-18T08:55:08;20.37;;;13.40;;
16880;SDS011;8557;52.068;5.198;2022-12-18T08:57:35;21.03;;;14.50;;
16880;SDS011;8557;52.068;5.198;2022-12-18T09:00:02;20.13;;;13.47;;
16880;SDS011;8557;52.068;5.198;2022-12-18T09:02:31;21.63;;;14.03;;
16880;SDS011;8557;52.068;5.198;2022-12-18T09:04:58;19.37;;;12.60;;
16880;SDS011;8557;52.068;5.198;2022-12-18T09:07:25;18.97;;;12.30;;
16880;SDS011;8557;52.068;5.198;2022-12-18T09:09:52;18.57;;;13.13;;
16880;SDS011;8557;52.068;5.198;2022-12-18T09:12:19;22.10;;;13.43;;
16880;SDS011;8557;52.068;5.198;2022-12-18T09:14:46;18.93;;;13.50;;
16880;SDS011;8557;52.068;5.198;2022-12-18T09:17:13;21.03;;;13.73;;
16880;SDS011;8557;52.068;5.198;2022-12-18T09:19:41;21.40;;;14.17;;
16880;SDS011;8557;52.068;5.198;2022-12-18T09:22:08;19.30;;;13.63;;
16880;SDS011;8557;52.068;5.198;2022-12-18T09:24:35;18.67;;;12.80;;
16880;SDS011;8557;52.068;5.198;2022-12-18T09:27:02;17.67;;;12.13;;
16880;SDS011;8557;52.068;5.198;2022-12-18T09:29:29;19.47;;;12.50;;
16880;SDS011;8557;52.068;5.198;2022-12-18T09:31:56;19.17;;;12.20;;
16880;SDS011;8557;52.068;5.198;2022-12-18T09:34:22;17.40;;;13.23;;
16880;SDS011;8557;52.068;5.198;2022-12-18T09:36:51;17.17;;;12.53;;
16880;SDS011;8557;52.068;5.198;2022-12-18T09:39:17;19.20;;;12.53;;
16880;SDS011;8557;52.068;5.198;2022-12-18T09:41:45;16.27;;;12.17;;
16880;SDS011;8557;52.068;5.198;2022-12-18T09:44:22;18.00;;;13.00;;
16880;SDS011;8557;52.068;5.198;2022-12-18T09:46:53;18.87;;;12.30;;
16880;SDS011;8557;52.068;5.198;2022-12-18T09:49:27;19.47;;;12.53;;
16880;SDS011;8557;52.068;5.198;2022-12-18T09:51:59;22.47;;;12.90;;
16880;SDS011;8557;52.068;5.198;2022-12-18T09:54:32;18.20;;;12.17;;
16880;SDS011;8557;52.068;5.198;2022-12-18T09:57:02;18.80;;;11.77;;
16880;SDS011;8557;52.068;5.198;2022-12-18T09:59:30;18.17;;;12.37;;
16880;SDS011;8557;52.068;5.198;2022-12-18T10:02:05;17.60;;;12.63;;
16880;SDS011;8557;52.068;5.198;2022-12-18T10:04:42;18.30;;;12.73;;
16880;SDS011;8557;52.068;5.198;2022-12-18T10:07:13;18.27;;;12.53;;
16880;SDS011;8557;52.068;5.198;2022-12-18T10:09:46;17.03;;;11.37;;
16880;SDS011;8557;52.068;5.198;2022-12-18T10:12:21;17.23;;;12.17;;
16880;SDS011;8557;52.068;5.198;2022-12-18T10:14:57;22.33;;;12.57;;
16880;SDS011;8557;52.068;5.198;2022-12-18T10:17:35;17.57;;;11.63;;
16880;SDS011;8557;52.068;5.198;2022-12-18T10:20:10;18.03;;;12.00;;
16880;SDS011;8557;52.068;5.198;2022-12-18T10:22:46;16.37;;;11.67;;
16880;SDS011;8557;52.068;5.198;2022-12-18T10:25:20;17.80;;;12.23;;
16880;SDS011;8557;52.068;5.198;2022-12-18T10:27:51;16.67;;;11.63;;
16880;SDS011;8557;52.068;5.198;2022-12-18T10:30:21;19.67;;;12.77;;
16880;SDS011;8557;52.068;5.198;2022-12-18T10:32:49;16.87;;;11.73;;
16880;SDS011;8557;52.068;5.198;2022-12-18T10:35:17;19.10;;;12.57;;
16880;SDS011;8557;52.068;5.198;2022-12-18T10:38:00;17.40;;;11.77;;
16880;SDS011;8557;52.068;5.198;2022-12-18T10:40:32;16.60;;;11.70;;
16880;SDS011;8557;52.068;5.198;2022-12-18T10:43:14;19.53;;;12.17;;
16880;SDS011;8557;52.068;5.198;2022-12-18T10:45:42;18.67;;;12.13;;
16880;SDS011;8557;52.068;5.198;2022-12-18T10:48:23;18.53;;;12.20;;
16880;SDS011;8557;52.068;5.198;2022-12-18T10:50:50;17.10;;;11.87;;
16880;SDS011;8557;52.068;5.198;2022-12-18T10:53:20;17.73;;;11.73;;
16880;SDS011;8557;52.068;5.198;2022-12-18T10:55:49;17.50;;;12.87;;
16880;SDS011;8557;52.068;5.198;2022-12-18T10:58:23;21.43;;;12.67;;
16880;SDS011;8557;52.068;5.198;2022-12-18T11:01:05;18.10;;;12.20;;
16880;SDS011;8557;52.068;5.198;2022-12-18T11:03:37;15.20;;;11.47;;
16880;SDS011;8557;52.068;5.198;2022-12-18T11:06:06;16.07;;;11.20;;
16880;SDS011;8557;52.068;5.198;2022-12-18T11:08:36;17.13;;;10.53;;
16880;SDS011;8557;52.068;5.198;2022-12-18T11:11:04;16.17;;;11.40;;
16880;SDS011;8557;52.068;5.198;2022-12-18T11:13:41;16.67;;;11.37;;
16880;SDS011;8557;52.068;5.198;2022-12-18T11:16:17;18.17;;;11.60;;
16880;SDS011;8557;52.068;5.198;2022-12-18T11:18:44;17.17;;;12.17;;
16880;SDS011;8557;52.068;5.198;2022-12-18T11:21:12;15.07;;;11.30;;
16880;SDS011;8557;52.068;5.198;2022-12-18T11:23:45;17.80;;;11.90;;
16880;SDS011;8557;52.068;5.198;2022-12-18T11:26:15;15.37;;;10.90;;
16880;SDS011;8557;52.068;5.198;2022-12-18T11:28:43;15.13;;;11.23;;
16880;SDS011;8557;52.068;5.198;2022-12-18T11:31:17;17.40;;;11.77;;
16880;SDS011;8557;52.068;5.198;2022-12-18T11:33:47;17.27;;;10.93;;
16880;SDS011;8557;52.068;5.198;2022-12-18T11:36:19;17.80;;;10.90;;
16880;SDS011;8557;52.068;5.198;2022-12-18T11:38:50;17.80;;;10.70;;
16880;SDS011;8557;52.068;5.198;2022-12-18T11:41:21;17.30;;;11.53;;
16880;SDS011;8557;52.068;5.198;2022-12-18T11:44:13;14.80;;;11.27;;
16880;SDS011;8557;52.068;5.198;2022-12-18T11:46:45;17.83;;;12.37;;
16880;SDS011;8557;52.068;5.198;2022-12-18T11:49:17;16.23;;;12.17;;
16880;SDS011;8557;52.068;5.198;2022-12-18T11:51:50;17.70;;;11.67;;
16880;SDS011;8557;52.068;5.198;2022-12-18T11:54:21;15.73;;;10.85;;
16880;SDS011;8557;52.068;5.198;2022-12-18T11:56:48;15.57;;;11.57;;
16880;SDS011;8557;52.068;5.198;2022-12-18T11:59:21;17.33;;;11.47;;
16880;SDS011;8557;52.068;5.198;2022-12-18T12:01:54;16.73;;;12.13;;
16880;SDS011;8557;52.068;5.198;2022-12-18T12:07:17;17.37;;;11.67;;
16880;SDS011;8557;52.068;5.198;2022-12-18T12:10:00;17.20;;;11.33;;
16880;SDS011;8557;52.068;5.198;2022-12-18T12:12:35;16.63;;;11.27;;
16880;SDS011;8557;52.068;5.198;2022-12-18T12:15:13;16.93;;;11.40;;
16880;SDS011;8557;52.068;5.198;2022-12-18T12:17:52;15.93;;;11.73;;
16880;SDS011;8557;52.068;5.198;2022-12-18T12:20:24;19.33;;;11.55;;
16880;SDS011;8557;52.068;5.198;2022-12-18T12:23:00;14.85;;;10.90;;
16880;SDS011;8557;52.068;5.198;2022-12-18T12:25:41;19.17;;;13.13;;
16880;SDS011;8557;52.068;5.198;2022-12-18T12:28:15;16.57;;;11.73;;
16880;SDS011;8557;52.068;5.198;2022-12-18T12:30:52;16.40;;;12.02;;
16880;SDS011;8557;52.068;5.198;2022-12-18T12:33:29;17.50;;;12.23;;
16880;SDS011;8557;52.068;5.198;2022-12-18T12:36:06;16.92;;;11.90;;
16880;SDS011;8557;52.068;5.198;2022-12-18T12:38:43;18.20;;;12.82;;
16880;SDS011;8557;52.068;5.198;2022-12-18T12:41:16;16.02;;;11.52;;
16880;SDS011;8557;52.068;5.198;2022-12-18T12:44:04;19.02;;;12.25;;
16880;SDS011;8557;52.068;5.198;2022-12-18T12:46:35;16.20;;;11.90;;
16880;SDS011;8557;52.068;5.198;2022-12-18T12:49:08;16.38;;;11.27;;
16880;SDS011;8557;52.068;5.198;2022-12-18T12:51:39;16.20;;;11.57;;
16880;SDS011;8557;52.068;5.198;2022-12-18T12:54:11;16.73;;;11.93;;
16880;SDS011;8557;52.068;5.198;2022-12-18T12:56:44;18.88;;;12.20;;
16880;SDS011;8557;52.068;5.198;2022-12-18T12:59:18;17.40;;;12.27;;
16880;SDS011;8557;52.068;5.198;2022-12-18T13:01:52;21.70;;;12.45;;
16880;SDS011;8557;52.068;5.198;2022-12-18T13:04:27;14.80;;;11.15;;
16880;SDS011;8557;52.068;5.198;2022-12-18T13:07:01;15.35;;;11.60;;
16880;SDS011;8557;52.068;5.198;2022-12-18T13:09:33;16.83;;;11.07;;
16880;SDS011;8557;52.068;5.198;2022-12-18T13:12:03;18.15;;;12.13;;
16880;SDS011;8557;52.068;5.198;2022-12-18T13:14:53;16.42;;;11.68;;
16880;SDS011;8557;52.068;5.198;2022-12-18T13:17:29;18.70;;;12.23;;
16880;SDS011;8557;52.068;5.198;2022-12-18T13:20:04;18.55;;;12.02;;
16880;SDS011;8557;52.068;5.198;2022-12-18T13:22:36;17.30;;;11.95;;
16880;SDS011;8557;52.068;5.198;2022-12-18T13:28:07;16.45;;;12.07;;
16880;SDS011;8557;52.068;5.198;2022-12-18T13:30:42;17.40;;;11.90;;
16880;SDS011;8557;52.068;5.198;2022-12-18T13:36:16;17.83;;;12.52;;
16880;SDS011;8557;52.068;5.198;2022-12-18T13:39:11;18.83;;;12.27;;
16880;SDS011;8557;52.068;5.198;2022-12-18T13:41:49;19.90;;;12.13;;
16880;SDS011;8557;52.068;5.198;2022-12-18T13:44:28;20.27;;;11.63;;
16880;SDS011;8557;52.068;5.198;2022-12-18T13:46:57;17.73;;;11.63;;
16880;SDS011;8557;52.068;5.198;2022-12-18T13:49:26;16.85;;;11.35;;
16880;SDS011;8557;52.068;5.198;2022-12-18T13:52:01;15.88;;;11.70;;
16880;SDS011;8557;52.068;5.198;2022-12-18T13:54:30;17.77;;;12.30;;
16880;SDS011;8557;52.068;5.198;2022-12-18T13:57:01;16.23;;;11.82;;
16880;SDS011;8557;52.068;5.198;2022-12-18T13:59:35;19.63;;;12.47;;
16880;SDS011;8557;52.068;5.198;2022-12-18T14:02:07;17.77;;;12.35;;
16880;SDS011;8557;52.068;5.198;2022-12-18T14:04:39;15.45;;;11.98;;
16880;SDS011;8557;52.068;5.198;2022-12-18T14:07:07;16.77;;;12.15;;
16880;SDS011;8557;52.068;5.198;2022-12-18T14:09:39;18.48;;;11.93;;
16880;SDS011;8557;52.068;5.198;2022-12-18T14:12:12;19.38;;;12.48;;
16880;SDS011;8557;52.068;5.198;2022-12-18T14:15:01;18.53;;;12.40;;
16880;SDS011;8557;52.068;5.198;2022-12-18T14:17:30;18.53;;;12.33;;
16880;SDS011;8557;52.068;5.198;2022-12-18T14:19:57;19.27;;;11.97;;
16880;SDS011;8557;52.068;5.198;2022-12-18T14:22:25;15.47;;;11.60;;
16880;SDS011;8557;52.068;5.198;2022-12-18T14:25:05;17.27;;;11.68;;
16880;SDS011;8557;52.068;5.198;2022-12-18T14:27:42;17.67;;;11.90;;
16880;SDS011;8557;52.068;5.198;2022-12-18T14:30:24;20.65;;;12.07;;
16880;SDS011;8557;52.068;5.198;2022-12-18T14:33:02;17.47;;;12.30;;
16880;SDS011;8557;52.068;5.198;2022-12-18T14:35:34;17.88;;;11.82;;
16880;SDS011;8557;52.068;5.198;2022-12-18T14:38:18;18.65;;;13.10;;
16880;SDS011;8557;52.068;5.198;2022-12-18T14:40:47;18.87;;;12.57;;
16880;SDS011;8557;52.068;5.198;2022-12-18T14:43:18;21.20;;;12.77;;
16880;SDS011;8557;52.068;5.198;2022-12-18T14:45:46;18.70;;;12.50;;
16880;SDS011;8557;52.068;5.198;2022-12-18T14:48:15;17.65;;;12.57;;
16880;SDS011;8557;52.068;5.198;2022-12-18T14:50:44;18.13;;;12.35;;
16880;SDS011;8557;52.068;5.198;2022-12-18T14:53:20;16.58;;;12.30;;
16880;SDS011;8557;52.068;5.198;2022-12-18T14:55:49;20.67;;;13.15;;
16880;SDS011;8557;52.068;5.198;2022-12-18T14:58:16;25.55;;;12.82;;
16880;SDS011;8557;52.068;5.198;2022-12-18T15:00:45;19.63;;;12.57;;
16880;SDS011;8557;52.068;5.198;2022-12-18T15:03:13;19.25;;;12.80;;